Aviation Digital Data Service (ADDS)

Output produced by TAFs form (2213 UTC 28 August 2015)
found at http://aviationweather.gov/adds/tafs/
 
KGUP 281728Z 2818/2918 VRB03KT P6SM FEW250 
     FM281900 02008KT P6SM SKC 
     FM290200 07006KT P6SM FEW100 
     FM290600 VRB03KT P6SM SCT070